Time;durP1;ratioP1;P1;durP2;ratioP2;P2;SDS_P1;SDS_P2;PMS_P1;PMS_P2;Temp;Humidity;BMP_temperature;BMP_pressure;BME280_temperature;BME280_humidity;BME280_pressure;Samples;Min_cycle;Max_cycle;Signal;HPM_P1;HPM_P2
2021/06/08 00:00:15;;;;;;;2.22;2.03;;;24.60;44.20;;;;;;4949926;28;20217;-50
2021/06/08 00:02:41;;;;;;;2.17;1.98;;;24.60;44.20;;;;;;4950489;28;20209;-44
2021/06/08 00:05:07;;;;;;;2.45;2.25;;;24.60;44.10;;;;;;4951903;28;20256;-47
2021/06/08 00:07:33;;;;;;;2.45;2.25;;;24.60;44.20;;;;;;4951005;28;20198;-43
2021/06/08 00:09:59;;;;;;;2.50;1.83;;;24.60;44.20;;;;;;4955964;28;20681;-47
2021/06/08 00:12:25;;;;;;;2.67;2.17;;;24.50;44.10;;;;;;4957384;28;20231;-44
2021/06/08 00:14:51;;;;;;;2.33;2.20;;;24.60;44.20;;;;;;4958436;28;20591;-46
2021/06/08 00:17:17;;;;;;;2.13;1.98;;;24.60;44.10;;;;;;4957815;28;20232;-43
2021/06/08 00:19:43;;;;;;;2.28;1.88;;;24.50;44.20;;;;;;4957600;28;20557;-41
2021/06/08 00:22:09;;;;;;;2.30;2.10;;;24.60;44.20;;;;;;4957495;28;20233;-46
2021/06/08 00:24:35;;;;;;;3.25;1.95;;;24.50;44.00;;;;;;4957930;28;20208;-42
2021/06/08 00:27:01;;;;;;;2.05;1.95;;;24.50;44.00;;;;;;4958653;28;20200;-48
2021/06/08 00:29:27;;;;;;;2.33;1.90;;;24.60;44.20;;;;;;4958519;28;20532;-47
2021/06/08 00:31:53;;;;;;;2.78;2.22;;;24.50;44.00;;;;;;4957449;28;20232;-43
2021/06/08 00:34:19;;;;;;;2.10;2.00;;;24.60;44.20;;;;;;4957333;28;20584;-48
2021/06/08 00:36:45;;;;;;;1.90;1.80;;;24.50;44.10;;;;;;4958115;28;20201;-54
2021/06/08 00:39:11;;;;;;;2.40;2.20;;;24.60;44.10;;;;;;4957929;28;20204;-46
2021/06/08 00:41:37;;;;;;;2.30;2.10;;;24.60;44.10;;;;;;4957131;28;20221;-41
2021/06/08 00:44:03;;;;;;;2.20;2.00;;;24.60;44.10;;;;;;4957813;28;20200;-46
2021/06/08 00:46:29;;;;;;;2.20;2.05;;;24.60;44.00;;;;;;4957240;28;20262;-51
2021/06/08 00:48:55;;;;;;;2.17;2.08;;;24.50;44.00;;;;;;4956638;28;20208;-50
2021/06/08 00:51:21;;;;;;;2.22;2.03;;;24.60;44.10;;;;;;4955156;28;20244;-42
2021/06/08 00:53:47;;;;;;;2.28;2.08;;;24.50;43.90;;;;;;4955409;28;20240;-40
2021/06/08 00:56:13;;;;;;;2.45;2.25;;;24.60;44.10;;;;;;4958061;28;20288;-40
2021/06/08 00:58:39;;;;;;;3.80;2.15;;;24.60;44.10;;;;;;4948792;28;20205;-43
2021/06/08 01:03:36;;;;;;;2.30;2.10;;;24.60;44.00;;;;;;4953502;29;20348;-45
2021/06/08 01:06:02;;;;;;;2.58;2.22;;;24.50;44.00;;;;;;4956470;28;20216;-47
2021/06/08 01:08:28;;;;;;;2.15;2.03;;;24.50;43.90;;;;;;4950217;28;20206;-45
2021/06/08 01:10:54;;;;;;;2.15;1.90;;;24.60;44.00;;;;;;4963968;28;20224;-44
2021/06/08 01:13:21;;;;;;;2.10;2.00;;;24.60;44.10;;;;;;4973480;28;20593;-45
2021/06/08 01:15:47;;;;;;;2.65;2.05;;;24.60;44.10;;;;;;4969906;28;20212;-44
2021/06/08 01:18:13;;;;;;;2.10;2.00;;;24.50;44.10;;;;;;4976390;28;20242;-49
2021/06/08 01:20:39;;;;;;;2.10;2.00;;;24.60;44.10;;;;;;4971544;28;20277;-48
2021/06/08 01:23:05;;;;;;;2.22;2.03;;;24.60;44.20;;;;;;4964498;28;20673;-46
2021/06/08 01:25:31;;;;;;;3.00;2.17;;;24.60;44.10;;;;;;4972913;28;20215;-50
2021/06/08 01:27:57;;;;;;;2.40;2.20;;;24.60;44.10;;;;;;4972703;28;20201;-47
2021/06/08 01:30:23;;;;;;;2.15;1.90;;;24.60;44.00;;;;;;4972338;28;20220;-55
2021/06/08 01:32:49;;;;;;;2.45;2.00;;;24.60;44.10;;;;;;4972634;28;20235;-46
2021/06/08 01:35:15;;;;;;;2.05;1.95;;;24.60;44.20;;;;;;4970506;28;20542;-45
2021/06/08 01:37:41;;;;;;;2.17;1.98;;;24.50;44.00;;;;;;4973354;28;20222;-52
2021/06/08 01:40:07;;;;;;;2.00;1.90;;;24.50;44.10;;;;;;4964888;28;20290;-48
2021/06/08 01:42:33;;;;;;;2.45;2.25;;;24.60;44.20;;;;;;4964072;28;20209;-46
2021/06/08 01:44:59;;;;;;;2.13;1.98;;;24.50;44.20;;;;;;4964243;28;20204;-45
2021/06/08 01:47:25;;;;;;;1.92;1.80;;;24.50;44.10;;;;;;4969927;28;20525;-46
2021/06/08 01:49:51;;;;;;;2.08;1.98;;;24.60;44.30;;;;;;4962874;28;20221;-52
2021/06/08 01:52:17;;;;;;;2.75;2.20;;;24.50;44.20;;;;;;4967507;28;20288;-45
2021/06/08 01:54:43;;;;;;;2.00;1.70;;;24.50;44.30;;;;;;4966045;28;20213;-52
2021/06/08 01:57:09;;;;;;;1.83;1.70;;;24.50;44.30;;;;;;4954487;28;20208;-45
2021/06/08 01:59:35;;;;;;;2.50;2.30;;;24.50;44.40;;;;;;4966408;28;20566;-44
2021/06/08 02:02:01;;;;;;;2.20;2.05;;;24.50;44.30;;;;;;4959335;28;20296;-45
2021/06/08 02:04:27;;;;;;;2.03;1.92;;;24.50;44.40;;;;;;4963934;28;20208;-48
2021/06/08 02:06:53;;;;;;;2.15;2.05;;;24.60;44.50;;;;;;4972205;28;20241;-45
2021/06/08 02:09:19;;;;;;;1.92;1.83;;;24.50;44.40;;;;;;4971081;28;20205;-46
2021/06/08 02:11:45;;;;;;;2.03;1.90;;;24.50;44.40;;;;;;4958494;28;20201;-47
2021/06/08 02:14:11;;;;;;;2.05;1.95;;;24.50;44.50;;;;;;4961200;28;20588;-44
2021/06/08 02:16:37;;;;;;;1.92;1.83;;;24.50;44.40;;;;;;4960710;28;20209;-49
2021/06/08 02:19:03;;;;;;;2.92;2.05;;;24.50;44.40;;;;;;4963004;28;20204;-47
2021/06/08 02:21:29;;;;;;;2.20;1.88;;;24.60;44.50;;;;;;4973207;28;20287;-47
2021/06/08 02:23:55;;;;;;;1.90;1.80;;;24.50;44.40;;;;;;4971839;28;20208;-48
2021/06/08 02:26:21;;;;;;;2.08;1.90;;;24.50;44.40;;;;;;4959878;28;20266;-50
2021/06/08 02:28:47;;;;;;;1.90;1.80;;;24.50;44.40;;;;;;4956759;28;20264;-44
2021/06/08 02:31:13;;;;;;;2.45;1.88;;;24.50;44.50;;;;;;4968486;28;20214;-44
2021/06/08 02:33:39;;;;;;;2.17;2.08;;;24.50;44.40;;;;;;4958245;28;20692;-44
2021/06/08 02:36:05;;;;;;;2.00;1.90;;;24.50;44.40;;;;;;4970762;28;20204;-46
2021/06/08 02:38:31;;;;;;;1.90;1.80;;;24.60;44.50;;;;;;4972350;28;20216;-45
2021/06/08 02:40:57;;;;;;;1.85;1.75;;;24.50;44.40;;;;;;4971980;28;20784;-46
2021/06/08 02:43:25;;;;;;;2.78;1.88;;;24.50;44.40;;;;;;4964812;28;20251;-48
2021/06/08 02:45:51;;;;;;;2.08;1.95;;;24.50;44.40;;;;;;4960909;28;20204;-44
2021/06/08 02:48:17;;;;;;;2.15;1.95;;;24.50;44.50;;;;;;4958801;28;20239;-45
2021/06/08 02:50:43;;;;;;;1.90;1.80;;;24.50;44.40;;;;;;4952877;28;20222;-45
2021/06/08 02:53:09;;;;;;;2.00;1.90;;;24.50;44.40;;;;;;4968599;28;20232;-47
2021/06/08 02:55:35;;;;;;;2.42;2.05;;;24.50;44.40;;;;;;4970792;28;20200;-48
2021/06/08 02:58:01;;;;;;;2.00;1.75;;;24.50;44.40;;;;;;4962195;28;20680;-46
2021/06/08 03:00:27;;;;;;;1.90;1.80;;;24.50;44.40;;;;;;4971444;28;20232;-45
2021/06/08 03:02:53;;;;;;;2.17;2.05;;;24.50;44.40;;;;;;4971036;28;20224;-49
2021/06/08 03:05:19;;;;;;;2.00;1.90;;;24.50;44.40;;;;;;4958026;28;20654;-48
2021/06/08 03:07:45;;;;;;;2.20;2.00;;;24.50;44.40;;;;;;4958498;28;20208;-51
2021/06/08 03:10:11;;;;;;;1.80;1.70;;;24.50;44.40;;;;;;4953042;29;20251;-47
2021/06/08 03:12:37;;;;;;;2.30;2.10;;;24.50;44.40;;;;;;4963834;28;20231;-46
2021/06/08 03:15:03;;;;;;;2.13;1.90;;;24.50;44.40;;;;;;4960480;28;20205;-53
2021/06/08 03:17:29;;;;;;;2.08;1.90;;;24.50;45.10;;;;;;4965206;28;20212;-52
2021/06/08 03:19:55;;;;;;;1.90;1.80;;;24.50;44.40;;;;;;4965510;28;20302;-48
2021/06/08 03:22:21;;;;;;;4.65;2.20;;;24.50;44.30;;;;;;4970550;28;20213;-44
2021/06/08 03:24:47;;;;;;;2.00;1.73;;;24.50;44.40;;;;;;4970868;28;20249;-46
2021/06/08 03:27:13;;;;;;;1.83;1.73;;;24.50;44.50;;;;;;4968618;28;20228;-54
2021/06/08 03:29:39;;;;;;;1.80;1.70;;;24.50;44.40;;;;;;4968638;28;20240;-49
2021/06/08 03:32:05;;;;;;;1.80;1.70;;;24.50;44.50;;;;;;4970533;28;20221;-48
2021/06/08 03:34:31;;;;;;;3.33;1.98;;;24.50;44.60;;;;;;4967027;28;20619;-49
2021/06/08 03:36:57;;;;;;;2.35;1.73;;;24.50;44.60;;;;;;4961689;28;20192;-46
2021/06/08 03:39:23;;;;;;;2.10;1.90;;;24.50;44.60;;;;;;4967782;28;20274;-47
2021/06/08 03:41:49;;;;;;;1.77;1.67;;;24.50;44.60;;;;;;4970246;28;20247;-50
2021/06/08 03:44:15;;;;;;;1.90;1.80;;;24.50;44.70;;;;;;4963683;28;20628;-49
2021/06/08 03:46:41;;;;;;;1.83;1.73;;;24.50;44.60;;;;;;4971145;28;20235;-45
2021/06/08 03:49:07;;;;;;;1.88;1.77;;;24.50;44.60;;;;;;4970652;28;20216;-46
2021/06/08 03:51:33;;;;;;;2.00;1.90;;;24.50;44.60;;;;;;4969926;28;20204;-50
2021/06/08 03:53:59;;;;;;;2.33;2.00;;;24.50;44.70;;;;;;4971808;28;20243;-49
2021/06/08 03:56:25;;;;;;;1.90;1.67;;;24.50;44.60;;;;;;4965471;28;20205;-45
2021/06/08 03:58:51;;;;;;;1.80;1.70;;;24.50;44.70;;;;;;4968042;28;20263;-44
2021/06/08 04:01:17;;;;;;;1.80;1.70;;;24.50;44.40;;;;;;4959746;28;20225;-51
2021/06/08 04:03:43;;;;;;;1.80;1.70;;;24.50;44.60;;;;;;4962458;28;20216;-46
2021/06/08 04:06:09;;;;;;;1.50;1.40;;;24.50;44.80;;;;;;4962911;28;20285;-53
2021/06/08 04:08:35;;;;;;;2.03;1.83;;;24.50;44.70;;;;;;4971128;28;20208;-45
2021/06/08 04:11:01;;;;;;;2.03;1.80;;;24.50;44.70;;;;;;4963585;28;20240;-44
2021/06/08 04:13:27;;;;;;;2.00;1.80;;;24.50;44.80;;;;;;4952092;29;20240;-48
2021/06/08 04:15:53;;;;;;;1.70;1.60;;;24.50;44.70;;;;;;4964806;28;20204;-44
2021/06/08 04:18:20;;;;;;;2.13;1.98;;;24.50;44.70;;;;;;4970201;28;20577;-43
2021/06/08 04:20:46;;;;;;;1.77;1.67;;;24.50;44.60;;;;;;4966521;28;20217;-44
2021/06/08 04:23:12;;;;;;;1.90;1.80;;;24.50;44.60;;;;;;4971015;28;20696;-47
2021/06/08 04:25:38;;;;;;;1.98;1.77;;;24.50;44.60;;;;;;4954767;28;20566;-43
2021/06/08 04:28:04;;;;;;;1.80;1.70;;;24.50;44.60;;;;;;4968739;28;20205;-48
2021/06/08 04:30:30;;;;;;;1.60;1.50;;;24.50;44.50;;;;;;4970007;28;20697;-45
2021/06/08 04:32:56;;;;;;;1.92;1.83;;;24.50;44.50;;;;;;4970953;28;20339;-49
2021/06/08 04:35:22;;;;;;;1.70;1.60;;;24.50;44.50;;;;;;4970099;28;20208;-48
2021/06/08 04:37:48;;;;;;;1.92;1.83;;;24.50;44.40;;;;;;4968731;28;20629;-44
2021/06/08 04:40:14;;;;;;;1.83;1.70;;;24.50;44.40;;;;;;4952453;28;20237;-44
2021/06/08 04:42:40;;;;;;;1.92;1.50;;;24.50;44.40;;;;;;4967014;28;20235;-44
2021/06/08 04:45:06;;;;;;;1.80;1.70;;;24.50;44.30;;;;;;4970279;28;20216;-51
2021/06/08 04:47:32;;;;;;;1.80;1.70;;;24.50;44.30;;;;;;4971119;28;20212;-44
2021/06/08 04:49:58;;;;;;;1.90;1.80;;;24.50;44.30;;;;;;4960106;28;20296;-45
2021/06/08 04:52:24;;;;;;;1.90;1.80;;;24.50;44.30;;;;;;4956169;28;20217;-46
2021/06/08 04:54:50;;;;;;;1.45;1.35;;;24.50;44.30;;;;;;4967573;28;20208;-46
2021/06/08 04:57:16;;;;;;;1.85;1.63;;;24.50;44.20;;;;;;4973252;28;20256;-44
2021/06/08 04:59:42;;;;;;;1.98;1.85;;;24.50;44.30;;;;;;4969177;28;20717;-48
2021/06/08 05:02:08;;;;;;;1.90;1.70;;;24.50;44.00;;;;;;4972609;28;20216;-46
2021/06/08 05:04:34;;;;;;;2.22;2.00;;;24.50;44.20;;;;;;4970252;28;20211;-44
2021/06/08 05:07:00;;;;;;;1.88;1.77;;;24.50;44.40;;;;;;4973033;28;20676;-47
2021/06/08 05:09:26;;;;;;;1.95;1.83;;;24.50;44.40;;;;;;4972444;28;20221;-44
2021/06/08 05:11:52;;;;;;;1.80;1.70;;;24.50;44.40;;;;;;4973201;28;20667;-50
2021/06/08 05:14:18;;;;;;;2.92;1.80;;;24.50;44.30;;;;;;4974274;28;20217;-48
2021/06/08 05:16:44;;;;;;;1.75;1.50;;;24.50;44.40;;;;;;4971856;28;20245;-51
2021/06/08 05:19:11;;;;;;;1.95;1.80;;;24.50;44.30;;;;;;4972841;28;20232;-46
2021/06/08 05:21:37;;;;;;;1.70;1.60;;;24.50;44.30;;;;;;4970102;28;20685;-48
2021/06/08 05:24:03;;;;;;;1.60;1.50;;;24.50;44.30;;;;;;4971476;28;20240;-45
2021/06/08 05:26:29;;;;;;;1.67;1.58;;;24.50;44.30;;;;;;4969268;28;20201;-45
2021/06/08 05:28:55;;;;;;;2.17;1.92;;;24.50;44.20;;;;;;4970931;28;20559;-46
2021/06/08 05:31:21;;;;;;;1.77;1.65;;;24.50;44.20;;;;;;4971443;28;20209;-44
2021/06/08 05:33:47;;;;;;;1.48;1.38;;;24.50;44.20;;;;;;4968366;28;20292;-47
2021/06/08 05:36:13;;;;;;;2.17;1.50;;;24.50;44.10;;;;;;4956154;28;20598;-47
2021/06/08 05:38:39;;;;;;;1.70;1.60;;;24.50;44.10;;;;;;4972215;28;20212;-46
2021/06/08 05:41:05;;;;;;;1.40;1.30;;;24.50;44.10;;;;;;4968469;28;20260;-44
2021/06/08 05:43:31;;;;;;;2.10;1.90;;;24.50;44.10;;;;;;4971524;28;20271;-44
2021/06/08 05:45:57;;;;;;;1.92;1.80;;;24.50;44.10;;;;;;4966794;28;20213;-49
2021/06/08 05:48:23;;;;;;;1.85;1.75;;;24.50;44.00;;;;;;4972677;28;20201;-44
2021/06/08 05:50:49;;;;;;;1.90;1.80;;;24.50;44.00;;;;;;4962131;28;20221;-52
2021/06/08 05:53:15;;;;;;;1.83;1.73;;;24.50;43.90;;;;;;4962785;28;20259;-46
2021/06/08 05:55:41;;;;;;;1.98;1.80;;;24.50;44.60;;;;;;4971328;28;20205;-44
2021/06/08 05:58:08;;;;;;;1.70;1.60;;;24.50;43.90;;;;;;4972405;28;20223;-46
2021/06/08 06:00:34;;;;;;;1.67;1.58;;;24.50;43.90;;;;;;4966410;28;20590;-44
2021/06/08 06:03:00;;;;;;;3.20;1.58;;;24.50;43.90;;;;;;4972813;28;20235;-46
2021/06/08 06:05:26;;;;;;;1.70;1.60;;;24.50;43.80;;;;;;4972631;28;20206;-44
2021/06/08 06:07:52;;;;;;;1.95;1.85;;;24.50;43.80;;;;;;4967047;28;20629;-47
2021/06/08 06:10:18;;;;;;;1.67;1.58;;;24.50;43.90;;;;;;4964513;28;20216;-43
2021/06/08 06:12:44;;;;;;;1.83;1.73;;;24.50;43.70;;;;;;4973002;28;20295;-48
2021/06/08 06:15:10;;;;;;;1.73;1.63;;;24.50;43.70;;;;;;4973320;28;20649;-46
2021/06/08 06:17:36;;;;;;;1.58;1.48;;;24.50;43.60;;;;;;4970340;28;20251;-47
2021/06/08 06:20:02;;;;;;;1.80;1.67;;;24.50;43.60;;;;;;4954101;28;20241;-46
2021/06/08 06:22:28;;;;;;;1.70;1.60;;;24.50;43.60;;;;;;4968986;28;20216;-46
2021/06/08 06:24:54;;;;;;;1.85;1.73;;;24.50;43.40;;;;;;4970009;28;20231;-45
2021/06/08 06:27:20;;;;;;;1.70;1.60;;;24.50;43.40;;;;;;4971590;28;20581;-43
2021/06/08 06:29:46;;;;;;;1.60;1.50;;;24.50;43.40;;;;;;4963473;28;20231;-44
2021/06/08 06:32:12;;;;;;;1.50;1.40;;;24.50;43.60;;;;;;4970016;28;20228;-46
2021/06/08 06:34:38;;;;;;;1.60;1.50;;;24.50;43.40;;;;;;4972750;28;20200;-48
2021/06/08 06:37:06;;;;;;;1.65;1.55;;;24.50;43.40;;;;;;4971342;28;20208;-49
2021/06/08 06:39:32;;;;;;;1.52;1.33;;;24.50;43.40;;;;;;4972180;28;20225;-46
2021/06/08 06:41:58;;;;;;;2.25;1.85;;;24.50;44.00;;;;;;4968675;28;20207;-47
2021/06/08 06:44:24;;;;;;;1.58;1.48;;;24.50;43.40;;;;;;4968065;28;20606;-45
2021/06/08 06:46:50;;;;;;;1.80;1.70;;;24.50;43.50;;;;;;4970845;28;20300;-49
2021/06/08 06:49:16;;;;;;;2.10;1.70;;;24.50;43.40;;;;;;4961004;28;20252;-50
2021/06/08 06:51:43;;;;;;;2.15;1.77;;;24.50;43.40;;;;;;4979262;28;20208;-50
2021/06/08 06:54:09;;;;;;;1.70;1.60;;;24.60;43.40;;;;;;4972500;28;20763;-49
2021/06/08 06:56:35;;;;;;;1.52;1.42;;;24.50;43.40;;;;;;4971299;28;20200;-49
2021/06/08 06:59:01;;;;;;;1.60;1.50;;;24.60;43.40;;;;;;4964791;28;20233;-48
2021/06/08 07:01:27;;;;;;;1.48;1.38;;;24.60;43.50;;;;;;4962167;28;20525;-46
2021/06/08 07:03:53;;;;;;;1.55;1.45;;;24.60;43.40;;;;;;4971305;28;20200;-53
2021/06/08 07:06:19;;;;;;;1.73;1.63;;;24.50;43.40;;;;;;4970927;28;20299;-47
2021/06/08 07:08:45;;;;;;;1.50;1.40;;;24.50;43.40;;;;;;4972060;28;20252;-48
2021/06/08 07:11:11;;;;;;;1.70;1.60;;;24.50;43.40;;;;;;4970494;28;20830;-47
2021/06/08 07:13:37;;;;;;;1.50;1.40;;;24.60;44.10;;;;;;4966677;28;20229;-52
2021/06/08 07:16:03;;;;;;;2.50;2.13;;;24.60;43.50;;;;;;4966563;28;20695;-44
2021/06/08 07:18:29;;;;;;;1.80;1.70;;;24.60;44.30;;;;;;4969958;28;20556;-49
2021/06/08 07:20:55;;;;;;;2.47;1.92;;;24.60;44.40;;;;;;4966250;28;20205;-47
2021/06/08 07:23:21;;;;;;;2.03;1.77;;;24.60;43.50;;;;;;4961488;28;20208;-50
2021/06/08 07:25:48;;;;;;;8.68;5.35;;;24.70;43.50;;;;;;4969911;28;20204;-46
2021/06/08 07:28:14;;;;;;;9.52;7.93;;;24.50;44.70;;;;;;4968640;28;20208;-46
2021/06/08 07:30:41;;;;;;;7.45;6.72;;;23.40;45.20;;;;;;4969913;28;20208;-45
2021/06/08 07:33:07;;;;;;;5.60;5.10;;;23.40;46.50;;;;;;4968329;28;20382;-44
2021/06/08 07:35:33;;;;;;;4.60;4.07;;;23.80;46.10;;;;;;4970299;28;20249;-50
2021/06/08 07:37:59;;;;;;;4.95;4.43;;;24.10;45.40;;;;;;4969259;28;20393;-47
2021/06/08 07:40:25;;;;;;;5.45;4.00;;;24.20;45.20;;;;;;4969286;28;20245;-45
2021/06/08 07:42:51;;;;;;;4.90;3.80;;;24.40;44.30;;;;;;4971488;28;20228;-47
2021/06/08 07:45:17;;;;;;;5.85;3.45;;;24.40;44.00;;;;;;4967992;28;20333;-46
2021/06/08 07:47:43;;;;;;;4.03;3.63;;;24.50;44.30;;;;;;4959764;28;20197;-49
2021/06/08 07:50:09;;;;;;;3.80;3.40;;;24.50;44.10;;;;;;4958287;28;20228;-48
2021/06/08 07:52:35;;;;;;;4.07;3.00;;;24.60;44.50;;;;;;4957806;28;20300;-48
2021/06/08 07:55:01;;;;;;;3.58;2.97;;;24.60;44.60;;;;;;4957586;28;20211;-52
2021/06/08 07:57:27;;;;;;;3.53;3.22;;;24.60;44.50;;;;;;4967871;28;20236;-50
2021/06/08 07:59:53;;;;;;;5.55;4.50;;;24.60;44.60;;;;;;4962737;28;20240;-50
2021/06/08 08:02:19;;;;;;;4.50;3.38;;;24.60;45.10;;;;;;4965296;28;20632;-47
2021/06/08 08:04:49;;;;;;;3.10;2.78;;;24.60;44.50;;;;;;4967364;28;20252;-49
2021/06/08 08:07:15;;;;;;;5.18;3.47;;;24.60;44.90;;;;;;4966073;28;20216;-47
2021/06/08 08:09:41;;;;;;;5.75;3.53;;;24.70;44.70;;;;;;4969987;28;20605;-49
2021/06/08 08:12:07;;;;;;;4.18;3.78;;;24.70;44.10;;;;;;4970460;28;20251;-46
2021/06/08 08:14:33;;;;;;;5.10;4.22;;;24.70;43.60;;;;;;4966174;28;20342;-47
2021/06/08 08:17:00;;;;;;;7.05;4.70;;;24.70;43.60;;;;;;4967234;28;20800;-46
2021/06/08 08:19:26;;;;;;;6.05;4.45;;;24.70;44.30;;;;;;4969916;28;20267;-46
2021/06/08 08:21:52;;;;;;;4.63;4.32;;;24.70;44.00;;;;;;4969205;28;20217;-49
2021/06/08 08:24:18;;;;;;;5.07;4.30;;;24.70;43.90;;;;;;4966190;28;20303;-47
2021/06/08 08:26:44;;;;;;;4.35;3.95;;;24.70;44.10;;;;;;4963982;28;20231;-44
2021/06/08 08:29:10;;;;;;;4.15;3.72;;;24.70;43.80;;;;;;4967186;28;20689;-45
2021/06/08 08:31:37;;;;;;;4.63;3.85;;;24.70;43.50;;;;;;4961486;28;20205;-43
2021/06/08 08:34:03;;;;;;;4.40;4.00;;;24.70;44.60;;;;;;4964842;28;20315;-55
2021/06/08 08:36:29;;;;;;;4.57;4.10;;;24.80;44.90;;;;;;4956964;28;20205;-58
2021/06/08 08:38:55;;;;;;;4.72;4.20;;;24.80;44.20;;;;;;4971577;28;20283;-56
2021/06/08 08:41:21;;;;;;;9.73;4.25;;;24.80;44.50;;;;;;4961261;28;20209;-56
2021/06/08 08:43:47;;;;;;;5.45;4.18;;;24.80;44.30;;;;;;4970025;28;20614;-58
2021/06/08 08:46:13;;;;;;;5.35;3.80;;;24.80;44.20;;;;;;4964578;28;20201;-56
2021/06/08 08:48:39;;;;;;;4.00;3.60;;;24.80;44.70;;;;;;4967984;28;20224;-55
2021/06/08 08:51:05;;;;;;;3.47;3.17;;;24.80;44.40;;;;;;4972854;28;20288;-57
2021/06/08 08:53:31;;;;;;;3.65;3.10;;;24.80;44.30;;;;;;4973449;28;20228;-56
2021/06/08 08:55:57;;;;;;;4.53;3.60;;;24.80;44.10;;;;;;4962303;28;20201;-54
2021/06/08 08:58:23;;;;;;;3.90;3.58;;;24.80;44.20;;;;;;4955992;28;20261;-58
2021/06/08 09:00:49;;;;;;;5.40;3.53;;;24.80;44.40;;;;;;4964675;28;20200;-53
2021/06/08 09:03:15;;;;;;;5.45;3.50;;;24.80;44.90;;;;;;4974595;28;20498;-51
2021/06/08 09:05:41;;;;;;;7.47;3.58;;;24.80;44.60;;;;;;4972300;28;20208;-56
2021/06/08 09:08:07;;;;;;;7.80;3.47;;;24.90;46.00;;;;;;4959146;28;20228;-53
2021/06/08 09:10:33;;;;;;;5.70;3.60;;;24.90;45.30;;;;;;4964223;28;20207;-50
2021/06/08 09:12:59;;;;;;;6.10;3.65;;;24.90;45.40;;;;;;4974167;28;20254;-52
2021/06/08 09:15:25;;;;;;;5.22;3.70;;;24.90;45.50;;;;;;4963610;28;20235;-52
2021/06/08 09:17:51;;;;;;;6.78;3.60;;;24.90;45.20;;;;;;4955321;28;20240;-50
2021/06/08 09:20:17;;;;;;;6.57;3.80;;;24.90;45.00;;;;;;4955125;28;20201;-50
2021/06/08 09:22:43;;;;;;;5.13;3.40;;;24.80;44.80;;;;;;4974450;28;20851;-49
2021/06/08 09:25:09;;;;;;;3.40;3.10;;;24.90;44.90;;;;;;4974419;28;20227;-49
2021/06/08 09:27:35;;;;;;;5.32;3.42;;;24.80;44.70;;;;;;4964409;28;20213;-48
2021/06/08 09:30:01;;;;;;;4.80;3.60;;;24.80;44.50;;;;;;4960147;28;20228;-49
2021/06/08 09:32:27;;;;;;;4.13;3.58;;;24.90;44.60;;;;;;4962964;28;20260;-48
2021/06/08 09:34:53;;;;;;;5.20;3.63;;;24.80;44.30;;;;;;4973750;28;20251;-48
2021/06/08 09:37:19;;;;;;;6.07;3.95;;;24.80;44.40;;;;;;4968723;28;20198;-48
2021/06/08 09:39:45;;;;;;;4.82;3.88;;;24.80;44.20;;;;;;4955128;29;20698;-50
2021/06/08 09:42:11;;;;;;;4.70;3.45;;;24.80;44.30;;;;;;4964358;28;20525;-48
2021/06/08 09:44:37;;;;;;;4.63;3.50;;;24.80;43.90;;;;;;4973535;28;20201;-49
2021/06/08 09:47:03;;;;;;;4.07;3.70;;;24.80;43.90;;;;;;4972786;28;20197;-52
2021/06/08 09:49:29;;;;;;;5.40;3.25;;;24.80;43.70;;;;;;4962035;28;20603;-47
2021/06/08 09:51:56;;;;;;;4.85;3.53;;;24.80;43.60;;;;;;4958735;28;20239;-49
2021/06/08 09:54:22;;;;;;;5.15;3.22;;;24.80;43.70;;;;;;4974026;28;20279;-48
2021/06/08 09:56:48;;;;;;;5.22;3.08;;;24.80;43.60;;;;;;4973734;28;20284;-49
2021/06/08 09:59:13;;;;;;;3.10;2.80;;;24.90;43.60;;;;;;4959011;28;20599;-48
2021/06/08 10:01:39;;;;;;;3.95;3.33;;;24.90;43.70;;;;;;4954635;29;20237;-49
2021/06/08 10:04:05;;;;;;;3.92;3.53;;;24.80;43.60;;;;;;4972867;28;20205;-50
2021/06/08 10:06:31;;;;;;;3.58;3.28;;;24.80;43.30;;;;;;4961754;28;20213;-48
2021/06/08 10:08:57;;;;;;;3.53;3.20;;;24.80;43.20;;;;;;4958036;28;20239;-53
2021/06/08 10:11:24;;;;;;;3.50;3.15;;;24.80;43.20;;;;;;4965279;28;20235;-53
2021/06/08 10:13:50;;;;;;;4.00;3.65;;;24.80;43.30;;;;;;4968683;28;20232;-53
2021/06/08 10:16:16;;;;;;;4.20;3.90;;;24.90;44.70;;;;;;4969436;28;20611;-52
2021/06/08 10:18:42;;;;;;;3.78;3.47;;;24.90;44.50;;;;;;4967474;28;20229;-45
2021/06/08 10:21:08;;;;;;;5.97;3.88;;;24.90;44.40;;;;;;4966056;28;20602;-49
2021/06/08 10:23:34;;;;;;;6.45;3.90;;;24.90;45.30;;;;;;4966277;28;20208;-48
2021/06/08 10:26:00;;;;;;;4.50;3.90;;;25.00;45.50;;;;;;4971071;28;20231;-49
2021/06/08 10:28:26;;;;;;;5.22;3.40;;;24.90;47.30;;;;;;4970435;28;20252;-48
2021/06/08 10:30:52;;;;;;;5.05;3.50;;;25.00;46.90;;;;;;4966377;28;20209;-48
2021/06/08 10:33:21;;;;;;;3.85;3.55;;;24.90;45.70;;;;;;4971481;28;20220;-55
2021/06/08 10:35:47;;;;;;;3.83;3.45;;;25.00;45.20;;;;;;4972229;28;20315;-47
2021/06/08 10:38:13;;;;;;;6.07;3.58;;;24.90;44.80;;;;;;4971223;28;20228;-50
2021/06/08 10:40:39;;;;;;;5.32;3.70;;;24.90;44.80;;;;;;4971128;28;20267;-47
2021/06/08 10:43:05;;;;;;;3.53;3.22;;;24.90;44.90;;;;;;4971867;28;20283;-50
2021/06/08 10:45:31;;;;;;;3.83;3.50;;;24.90;44.40;;;;;;4972307;28;20200;-46
2021/06/08 10:48:04;;;;;;;4.07;3.00;;;25.00;44.30;;;;;;4981135;28;20250;-47
2021/06/08 10:50:31;;;;;;;4.05;3.50;;;25.00;44.50;;;;;;4973918;28;20241;-56
2021/06/08 10:52:58;;;;;;;3.50;3.10;;;25.00;44.40;;;;;;4968387;28;20690;-50
2021/06/08 10:55:24;;;;;;;3.30;3.10;;;25.00;44.10;;;;;;4968900;28;20212;-50
2021/06/08 10:57:50;;;;;;;3.03;2.78;;;25.00;44.20;;;;;;4960249;28;20221;-49
2021/06/08 11:00:16;;;;;;;3.55;3.13;;;25.00;44.30;;;;;;4969549;28;20597;-48
2021/06/08 11:02:43;;;;;;;3.05;2.80;;;25.00;44.10;;;;;;4968458;28;20263;-48
2021/06/08 11:05:09;;;;;;;5.05;3.20;;;25.00;46.30;;;;;;4971092;28;20204;-52
2021/06/08 11:07:35;;;;;;;3.38;2.67;;;25.10;46.30;;;;;;4967905;28;20231;-50
2021/06/08 11:10:02;;;;;;;3.40;3.10;;;25.10;45.50;;;;;;4972425;28;20208;-53
2021/06/08 11:12:28;;;;;;;2.97;2.75;;;25.00;45.60;;;;;;4963991;28;20292;-54
2021/06/08 11:15:00;;;;;;;4.72;3.22;;;25.00;45.50;;;;;;4965075;28;20209;-49
2021/06/08 11:17:26;;;;;;;3.65;3.15;;;25.00;46.20;;;;;;4967641;28;20201;-51
2021/06/08 11:19:52;;;;;;;4.65;3.42;;;25.00;46.50;;;;;;4969354;28;20263;-53
2021/06/08 11:22:18;;;;;;;6.78;4.65;;;25.00;46.00;;;;;;4968649;28;20275;-54
2021/06/08 11:24:44;;;;;;;4.68;4.28;;;25.00;45.20;;;;;;4968122;28;20205;-54
2021/06/08 11:27:10;;;;;;;4.93;3.65;;;25.00;45.30;;;;;;4970100;28;20243;-53
2021/06/08 11:29:36;;;;;;;9.50;4.50;;;25.00;45.20;;;;;;4970038;28;20303;-51
2021/06/08 11:32:02;;;;;;;6.97;3.55;;;25.00;45.70;;;;;;4955930;28;20643;-52
2021/06/08 11:34:28;;;;;;;7.13;3.70;;;25.00;45.10;;;;;;4965618;28;20239;-53
2021/06/08 11:36:54;;;;;;;7.93;4.95;;;25.00;44.50;;;;;;4964801;28;20204;-54
2021/06/08 11:39:21;;;;;;;9.38;4.70;;;24.90;43.80;;;;;;4971633;28;20264;-49
2021/06/08 11:41:47;;;;;;;6.82;5.20;;;24.90;43.70;;;;;;4968304;28;20209;-54
2021/06/08 11:44:13;;;;;;;8.23;4.75;;;24.90;43.70;;;;;;4963213;28;20637;-54
2021/06/08 11:46:39;;;;;;;8.23;5.03;;;24.90;43.40;;;;;;4964752;28;20228;-57
2021/06/08 11:49:05;;;;;;;6.38;4.57;;;25.00;43.80;;;;;;4965635;28;20296;-52
2021/06/08 11:51:34;;;;;;;5.50;4.10;;;24.90;43.40;;;;;;4971601;28;20196;-51
2021/06/08 11:54:00;;;;;;;7.57;4.57;;;24.90;43.30;;;;;;4968753;28;20762;-54
2021/06/08 11:56:26;;;;;;;8.63;4.55;;;25.00;43.10;;;;;;4967163;28;20201;-55
2021/06/08 11:58:52;;;;;;;7.07;4.15;;;25.00;43.30;;;;;;4965286;28;20224;-49
2021/06/08 12:01:18;;;;;;;8.02;5.18;;;24.90;42.90;;;;;;4970388;28;20258;-56
2021/06/08 12:03:44;;;;;;;7.40;4.70;;;24.90;42.70;;;;;;4971834;28;20212;-54
2021/06/08 12:06:10;;;;;;;5.10;4.60;;;24.90;42.40;;;;;;4969846;28;20614;-54
2021/06/08 12:08:36;;;;;;;5.63;5.13;;;24.90;42.40;;;;;;4962018;28;20232;-52
2021/06/08 12:11:02;;;;;;;6.28;4.25;;;24.90;42.40;;;;;;4960498;28;20205;-53
2021/06/08 12:13:28;;;;;;;5.30;3.90;;;24.90;42.60;;;;;;4964931;28;20276;-52
2021/06/08 12:15:55;;;;;;;6.78;4.68;;;24.90;42.60;;;;;;4965832;28;20708;-55
2021/06/08 12:18:24;;;;;;;4.03;3.70;;;24.90;42.30;;;;;;4969558;28;20414;-50
2021/06/08 12:20:50;;;;;;;5.80;5.20;;;24.90;42.50;;;;;;4952467;29;20212;-54
2021/06/08 12:23:16;;;;;;;5.22;4.78;;;24.90;41.90;;;;;;4965766;28;20200;-56
2021/06/08 12:25:42;;;;;;;5.40;4.90;;;24.90;41.90;;;;;;4965471;28;20295;-53
2021/06/08 12:28:08;;;;;;;5.80;5.22;;;24.90;41.90;;;;;;4970073;28;20239;-52
2021/06/08 12:30:34;;;;;;;6.43;4.88;;;24.90;41.70;;;;;;4967384;28;20225;-53
2021/06/08 12:33:00;;;;;;;5.38;4.32;;;24.90;41.80;;;;;;4951302;28;22245;-55
2021/06/08 12:35:26;;;;;;;6.07;4.55;;;24.90;42.50;;;;;;4960052;28;20649;-54
2021/06/08 12:37:52;;;;;;;4.35;3.78;;;24.90;42.60;;;;;;4970907;28;20267;-53
2021/06/08 12:40:18;;;;;;;3.63;3.35;;;24.90;42.80;;;;;;4968110;28;20204;-55
2021/06/08 12:42:44;;;;;;;4.85;3.50;;;24.90;42.60;;;;;;4965566;28;20221;-53